Blue Bay — V2CE6 — position and weather

sailwx.info

Track history (hours):
 
Tides and Currents Weather Stations Pressure Air Temp Water Temp Dewpoint Dewpoint Depression Visibility Wind Speed Wind Dir Waves Ship Positions

Blue Bay

Last reported at 2017-Dec-16 11:25 UTC. Time now 2017-Dec-16 15:04 UTC.
Position N 51°30' E 001°05'.

Length 90 m; draft 5.4 m.

Type: Cargo ship. MMSI: 304519000.

Date/timePositionNaut miles runAvg speedWind from/ knotsBaromVisibWave heightAir tempDewpointWater temp
2017-Dec-16 11:25N 51°30' E 001°05'410.2
2017-Dec-16 10:59N 51°29' E 001°12'510.3
2017-Dec-16 10:31N 51°29' E 001°20'510.6
2017-Dec-16 10:01N 51°30' E 001°28'510.3
2017-Dec-16 09:30N 51°31' E 001°36'510.2
2017-Dec-16 09:00N 51°32' E 001°44'510.2
2017-Dec-16 08:31N 51°34' E 001°52'510.3
2017-Dec-16 08:01N 51°36' E 001°59'510.5
2017-Dec-16 07:30N 51°39' E 002°07'1111.0
2017-Dec-16 06:28N 51°45' E 002°22'31 9.6
2017-Dec-16 03:12N 52°09' E 002°54'2 8.5
2017-Dec-16 03:00N 52°11' E 002°56'4 8.4
2017-Dec-16 02:29N 52°14' E 003°00'4 8.2
2017-Dec-16 02:00N 52°17' E 003°04'4 8.2
2017-Dec-16 01:29N 52°21' E 003°09'35 8.8
2017-Dec-15 21:32N 52°47' E 003°45'54 9.5
2017-Dec-15 15:50N 53°29' E 004°43'3 8.0
2017-Dec-15 15:31N 53°30' E 004°47'4 7.9
2017-Dec-15 15:00N 53°32' E 004°53'4 8.1
2017-Dec-15 14:30N 53°33' E 004°60'4 8.4
2017-Dec-15 14:00N 53°34' E 005°06'101 8.8
2017-Dec-15 02:30N 54°01' E 007°51'14 9.4
2017-Dec-15 01:00N 54°01' E 008°15'510.8
2017-Dec-15 00:30N 53°60' E 008°24'48 8.1
2017-Dec-14 18:31N 53°36' E 009°35'611.3
2017-Dec-14 18:01N 53°34' E 009°44'611.3
2017-Dec-14 17:31N 53°33' E 009°54'4 7.6
2017-Dec-14 17:01N 53°29' E 009°57'1 2.3
2017-Dec-14 16:31N 53°28' E 009°58'0 0.0
2017-Dec-14 15:59N 53°28' E 009°58'0 0.0
2017-Dec-14 15:00N 53°28' E 009°58'0 0.0
2017-Dec-14 14:31N 53°28' E 009°58'0 0.0
2017-Dec-14 14:00N 53°28' E 009°58'0 0.0
2017-Dec-14 13:30N 53°28' E 009°58'0 0.0
2017-Dec-14 13:00N 53°28' E 009°58'0 0.0
2017-Dec-14 12:30N 53°28' E 009°58'0 0.0
2017-Dec-14 12:00N 53°28' E 009°58'0 0.0
2017-Dec-14 11:30N 53°28' E 009°58'0 0.0
2017-Dec-14 11:00N 53°28' E 009°58'0 0.0
2017-Dec-14 10:31N 53°28' E 009°58'0 0.0
2017-Dec-14 10:00N 53°28' E 009°58'0 0.0
2017-Dec-14 09:30N 53°28' E 009°58'0 0.0
2017-Dec-14 09:01N 53°28' E 009°58'0 0.0
2017-Dec-14 08:30N 53°28' E 009°58'0 0.0
2017-Dec-14 08:00N 53°28' E 009°58'0 0.0
2017-Dec-14 07:30N 53°28' E 009°58'0 0.0
2017-Dec-14 07:00N 53°28' E 009°58'0 0.0
2017-Dec-14 06:30N 53°28' E 009°58'0 0.0
2017-Dec-14 06:00N 53°28' E 009°58'0 0.0
2017-Dec-14 05:30N 53°28' E 009°58'0 0.0
2017-Dec-14 05:01N 53°28' E 009°58'0 0.0
2017-Dec-14 04:30N 53°28' E 009°58'0 0.0
2017-Dec-14 04:00N 53°28' E 009°58'0 0.0
2017-Dec-14 03:30N 53°28' E 009°58'0 0.0
2017-Dec-14 03:00N 53°28' E 009°58'0 0.0
2017-Dec-14 02:31N 53°28' E 009°58'0 0.0
2017-Dec-14 02:00N 53°28' E 009°58'0 0.0
2017-Dec-14 01:31N 53°28' E 009°58'0 0.0
2017-Dec-14 01:00N 53°28' E 009°58'0 0.0
2017-Dec-14 00:30N 53°28' E 009°58'0 0.0
2017-Dec-14 00:00N 53°28' E 009°58'0 0.0
2017-Dec-13 23:31N 53°28' E 009°58'0 0.0
2017-Dec-13 23:00N 53°28' E 009°58'0 0.0
2017-Dec-13 22:30N 53°28' E 009°58'0 0.0
2017-Dec-13 22:00N 53°28' E 009°58'0 0.0
2017-Dec-13 21:30N 53°28' E 009°58'2 3.2
2017-Dec-13 21:00N 53°30' E 009°57'2 3.5
2017-Dec-13 20:30N 53°32' E 009°56'3 6.6
2017-Dec-13 20:00N 53°33' E 009°51'611.7
2017-Dec-13 19:31N 53°34' E 009°42'612.5
2017-Dec-13 19:01N 53°37' E 009°33'612.4
2017-Dec-13 18:30N 53°43' E 009°28'611.7
2017-Dec-13 18:01N 53°48' E 009°23'611.3
2017-Dec-13 17:31N 53°52' E 009°16'511.0
2017-Dec-13 17:00N 53°53' E 009°07'510.3
2017-Dec-13 16:30N 53°51' E 008°59'5 9.6
2017-Dec-13 16:00N 53°50' E 008°51'4 8.2
2017-Dec-13 15:30N 53°52' E 008°44'4 7.2
2017-Dec-13 15:01N 53°55' E 008°41'4 7.5
2017-Dec-13 14:30N 53°57' E 008°37'4 9.0
2017-Dec-13 14:00N 53°58' E 008°29'4 8.7
2017-Dec-13 13:30N 53°59' E 008°22'510.8
2017-Dec-13 13:00N 53°60' E 008°13'510.8
2017-Dec-13 12:30N 53°59' E 008°04'510.3
2017-Dec-13 12:00N 53°58' E 007°55'510.2
2017-Dec-13 11:29N 53°56' E 007°47'8310.9
2017-Dec-13 03:48N 53°34' E 005°30'412.5
2017-Dec-13 03:31N 53°33' E 005°25'612.5
2017-Dec-13 03:00N 53°31' E 005°15'612.5
2017-Dec-13 02:31N 53°29' E 005°05'612.4
2017-Dec-13 02:00N 53°27' E 004°55'612.2
2017-Dec-13 01:30N 53°25' E 004°45'1612.5
2017-Dec-13 00:11N 53°11' E 004°30'212.6
2017-Dec-13 00:00N 53°09' E 004°28'712.7
2017-Dec-12 23:29N 53°03' E 004°23'612.5
2017-Dec-12 23:00N 52°58' E 004°19'612.4
2017-Dec-12 22:30N 52°52' E 004°14'612.3
2017-Dec-12 22:00N 52°48' E 004°08'612.2
2017-Dec-12 21:30N 52°43' E 004°02'611.9
2017-Dec-12 21:00N 52°39' E 003°55'611.6
2017-Dec-12 20:30N 52°34' E 003°48'611.3
2017-Dec-12 19:59N 52°30' E 003°42'511.0
2017-Dec-12 19:30N 52°26' E 003°36'610.7
2017-Dec-12 18:59N 52°23' E 003°29'510.3
2017-Dec-12 18:29N 52°19' E 003°23'510.1
2017-Dec-12 18:00N 52°15' E 003°17'5 9.9
2017-Dec-12 17:30N 52°12' E 003°12'5 9.7
2017-Dec-12 16:59N 52°08' E 003°06'5 9.6
2017-Dec-12 16:30N 52°06' E 002°60'510.1
2017-Dec-12 15:59N 52°05' E 002°51'2710.1
2017-Dec-12 13:20N 51°48' E 002°18'411.1
2017-Dec-12 13:00N 51°45' E 002°14'611.2
2017-Dec-12 12:30N 51°42' E 002°06'611.3
2017-Dec-12 12:00N 51°39' E 001°59'611.6
2017-Dec-12 11:30N 51°36' E 001°51'611.7
2017-Dec-12 11:00N 51°32' E 001°44'611.9
2017-Dec-12 10:30N 51°30' E 001°35'612.3
2017-Dec-12 10:00N 51°29' E 001°25'612.3
2017-Dec-12 09:30N 51°29' E 001°15'612.9
2017-Dec-12 09:00N 51°29' E 001°05'612.3
2017-Dec-12 08:30N 51°29' E 000°55'611.2
2017-Dec-12 08:00N 51°28' E 000°46'4 7.5
2017-Dec-12 07:30N 51°24' E 000°44'2 3.6
2017-Dec-12 07:00N 51°23' E 000°46'0 0.0
2017-Dec-12 06:30N 51°23' E 000°46'0 0.0
2017-Dec-12 06:00N 51°23' E 000°46'0 0.0
2017-Dec-12 05:30N 51°23' E 000°46'0 0.0
2017-Dec-12 05:00N 51°23' E 000°46'0 0.0
2017-Dec-12 04:30N 51°23' E 000°46'0 0.0
2017-Dec-12 04:00N 51°23' E 000°46'0 0.0
2017-Dec-12 03:30N 51°23' E 000°46'0 0.0
2017-Dec-12 03:00N 51°23' E 000°46'0 0.0
2017-Dec-12 02:30N 51°23' E 000°46'0 0.0
2017-Dec-12 02:00N 51°23' E 000°46'0 0.0
2017-Dec-12 01:30N 51°23' E 000°46'0 0.0
2017-Dec-12 01:01N 51°23' E 000°46'0 0.0
2017-Dec-12 00:30N 51°23' E 000°46'0 0.0
2017-Dec-12 00:00N 51°23' E 000°46'0 0.0
2017-Dec-11 23:30N 51°23' E 000°46'0 0.0
2017-Dec-11 23:00N 51°23' E 000°46'0 0.0
2017-Dec-11 22:30N 51°23' E 000°46'0 0.0
2017-Dec-11 22:00N 51°23' E 000°46'0 0.0
2017-Dec-11 21:30N 51°23' E 000°46'0 0.0
2017-Dec-11 21:00N 51°23' E 000°46'0 0.0
2017-Dec-11 20:31N 51°23' E 000°46'0 0.0
2017-Dec-11 20:00N 51°23' E 000°46'0 0.0
2017-Dec-11 19:30N 51°23' E 000°46'0 0.0
2017-Dec-11 19:01N 51°23' E 000°46'0 0.0
2017-Dec-11 18:30N 51°23' E 000°46'0 0.0
2017-Dec-11 18:00N 51°23' E 000°46'0 0.0
2017-Dec-11 17:30N 51°23' E 000°46'0 0.0
2017-Dec-11 17:00N 51°23' E 000°46'0 0.0
2017-Dec-11 16:30N 51°23' E 000°46'0 0.0
2017-Dec-11 16:00N 51°23' E 000°46'0 0.0
2017-Dec-11 15:30N 51°23' E 000°46'0 0.0
2017-Dec-11 15:00N 51°23' E 000°46'0 0.0
2017-Dec-11 14:30N 51°23' E 000°46'0 0.0
2017-Dec-11 14:00N 51°23' E 000°46'0 0.0
2017-Dec-11 13:30N 51°23' E 000°46'0 0.0
2017-Dec-11 13:00N 51°23' E 000°46'0 0.0
2017-Dec-11 12:30N 51°23' E 000°46'0 0.0
2017-Dec-11 12:00N 51°23' E 000°46'0 0.0
2017-Dec-11 11:30N 51°23' E 000°46'0 0.0
2017-Dec-11 11:00N 51°23' E 000°46'0 0.0
2017-Dec-11 10:30N 51°23' E 000°46'0 0.0
2017-Dec-11 10:00N 51°23' E 000°46'0 0.0
2017-Dec-11 09:16N 51°23' E 000°46'0 0.0
2017-Dec-11 09:00N 51°23' E 000°46'0 0.0
2017-Dec-11 08:30N 51°23' E 000°46'0 0.0
2017-Dec-11 08:01N 51°23' E 000°46'0 0.0
2017-Dec-11 07:30N 51°23' E 000°46'0 0.0
2017-Dec-11 07:00N 51°23' E 000°46'0 0.0
2017-Dec-11 06:30N 51°23' E 000°46'0 0.4
2017-Dec-11 06:00N 51°23' E 000°45'2 4.3
2017-Dec-11 05:31N 51°25' E 000°43'4 7.0
2017-Dec-11 05:00N 51°28' E 000°47'611.3
2017-Dec-11 04:30N 51°30' E 000°55'2 3.6
2017-Dec-11 04:00N 51°30' E 000°58'0 0.2
2017-Dec-11 03:30N 51°30' E 000°58'0 0.0
2017-Dec-11 03:00N 51°30' E 000°58'0 0.0
2017-Dec-11 02:31N 51°30' E 000°58'0 0.1
2017-Dec-11 02:00N 51°30' E 000°58'0 0.0
2017-Dec-11 01:30N 51°30' E 000°58'0 0.0
2017-Dec-11 01:00N 51°30' E 000°58'0 0.2
2017-Dec-11 00:30N 51°30' E 000°58'0 0.1
2017-Dec-11 00:00N 51°30' E 000°58'0 0.0
2017-Dec-10 23:30N 51°30' E 000°58'0 0.0
2017-Dec-10 23:00N 51°30' E 000°58'2 3.0
2017-Dec-10 22:30N 51°29' E 000°57'5 8.8
2017-Dec-10 21:58N 51°30' E 001°04'5 8.8
2017-Dec-10 21:25N 51°29' E 001°12'3 8.4
2017-Dec-10 21:00N 51°29' E 001°18'4 8.1
2017-Dec-10 20:31N 51°29' E 001°24'4 8.6
2017-Dec-10 20:00N 51°30' E 001°31'4 8.5
2017-Dec-10 19:30N 51°32' E 001°37'4 8.5
2017-Dec-10 19:00N 51°35' E 001°41'4 8.2
2017-Dec-10 18:31N 51°39' E 001°45'4 8.7
2017-Dec-10 18:00N 51°43' E 001°45'5 9.1
2017-Dec-10 17:30N 51°47' E 001°44'5 9.5
2017-Dec-10 17:01N 51°52' E 001°45'5 9.5
2017-Dec-10 16:30N 51°57' E 001°45'5 9.8
2017-Dec-10 16:00N 52°02' E 001°45'5 9.8
2017-Dec-10 15:30N 52°07' E 001°45'3 6.3
2017-Dec-10 15:00N 52°10' E 001°45'2 4.6
2017-Dec-10 14:30N 52°09' E 001°48'2 4.6
2017-Dec-10 14:01N 52°07' E 001°51'1 2.4
2017-Dec-10 13:30N 52°07' E 001°53'2 4.2
2017-Dec-10 13:00N 52°09' E 001°52'2 3.9
2017-Dec-10 12:30N 52°11' E 001°51'10 3.9
2017-Dec-10 09:59N 52°11' E 002°07'78 8.5
2017-Dec-10 00:43N 52°54' E 003°55'2 9.0
2017-Dec-10 00:29N 52°55' E 003°58'5 8.7
2017-Dec-09 23:53N 52°59' E 004°04'38 7.2
2017-Dec-09 18:39N 53°29' E 004°41'1 8.2
2017-Dec-09 18:30N 53°30' E 004°43'4 8.5
2017-Dec-09 18:00N 53°31' E 004°49'4 8.5
2017-Dec-09 17:31N 53°33' E 004°56'4 8.8
2017-Dec-09 17:01N 53°34' E 005°03'4 8.6
2017-Dec-09 16:30N 53°35' E 005°10'94 7.5
2017-Dec-09 04:02N 54°02' E 007°43'0 7.4
2017-Dec-09 03:58N 54°02' E 007°44'4 7.5
2017-Dec-09 03:30N 54°02' E 007°50'4 7.1
2017-Dec-09 03:00N 54°02' E 007°56'3 6.7
2017-Dec-09 02:30N 54°02' E 008°01'3 6.4
2017-Dec-09 02:00N 54°01' E 008°07'3 6.1
2017-Dec-09 01:30N 54°01' E 008°12'3 5.7
2017-Dec-09 01:00N 54°01' E 008°17'3 5.4
2017-Dec-09 00:30N 54°00' E 008°21'3 5.9
2017-Dec-09 00:00N 53°59' E 008°26'3 6.6
2017-Dec-08 23:30N 53°58' E 008°31'4 8.4
2017-Dec-08 23:00N 53°57' E 008°38'611.0
2017-Dec-08 22:30N 53°53' E 008°43'611.2
2017-Dec-08 22:00N 53°50' E 008°52'611.7
2017-Dec-08 21:30N 53°52' E 009°02'510.5
2017-Dec-08 21:00N 53°53' E 009°11'611.7
2017-Dec-08 20:30N 53°51' E 009°20'612.6
2017-Dec-08 20:01N 53°45' E 009°25'611.4
2017-Dec-08 19:30N 53°41' E 009°30'510.5
2017-Dec-08 19:00N 53°36' E 009°35'5 9.4
2017-Dec-08 18:31N 53°34' E 009°42'4 8.1
2017-Dec-08 18:00N 53°33' E 009°49'4 7.3
2017-Dec-08 17:31N 53°33' E 009°55'3 6.9
2017-Dec-08 17:00N 53°29' E 009°57'1 2.1
2017-Dec-08 16:30N 53°28' E 009°58'0 0.0
2017-Dec-08 16:00N 53°28' E 009°58'0 0.0
2017-Dec-08 15:30N 53°28' E 009°58'0 0.0
2017-Dec-08 15:00N 53°28' E 009°58'0 0.0
2017-Dec-08 14:30N 53°28' E 009°58'0 0.0
2017-Dec-08 14:00N 53°28' E 009°58'0 0.0
2017-Dec-08 13:30N 53°28' E 009°58'0 0.0
2017-Dec-08 13:00N 53°28' E 009°58'0 0.0
2017-Dec-08 12:30N 53°28' E 009°58'0 0.0
2017-Dec-08 12:00N 53°28' E 009°58'0 0.0
2017-Dec-08 11:30N 53°28' E 009°58'0 0.0
2017-Dec-08 11:00N 53°28' E 009°58'0 0.0
2017-Dec-08 10:30N 53°28' E 009°58'0 0.0
2017-Dec-08 10:00N 53°28' E 009°58'0 0.0
2017-Dec-08 09:30N 53°28' E 009°58'0 0.0
2017-Dec-08 09:00N 53°28' E 009°58'0 0.0
2017-Dec-08 08:30N 53°28' E 009°58'0 0.0
2017-Dec-08 08:00N 53°28' E 009°58'0 0.0
2017-Dec-08 07:30N 53°28' E 009°58'0 0.0
2017-Dec-08 07:00N 53°28' E 009°58'0 0.0
2017-Dec-08 06:30N 53°28' E 009°58'0 0.0
2017-Dec-08 06:00N 53°28' E 009°58'0 0.0
2017-Dec-08 05:30N 53°28' E 009°58'0 0.0
2017-Dec-08 04:57N 53°28' E 009°58'0 0.0
2017-Dec-08 04:30N 53°28' E 009°58'0 0.0
2017-Dec-08 04:00N 53°28' E 009°58'0 0.0
2017-Dec-08 03:30N 53°28' E 009°58'0 0.0
2017-Dec-08 03:00N 53°28' E 009°58'0 0.0
2017-Dec-08 02:30N 53°28' E 009°58'0 0.0
2017-Dec-08 02:00N 53°28' E 009°58'0 0.0
2017-Dec-08 01:30N 53°28' E 009°58'0 0.0
2017-Dec-08 01:00N 53°28' E 009°58'0 0.0
2017-Dec-08 00:30N 53°28' E 009°58'0 0.0
2017-Dec-08 00:00N 53°28' E 009°58'0 0.0
2017-Dec-07 23:30N 53°28' E 009°58'0 0.0
2017-Dec-07 23:00N 53°28' E 009°58'0 0.0
2017-Dec-07 22:30N 53°28' E 009°58'0 0.0
2017-Dec-07 22:00N 53°28' E 009°58'0 0.0
2017-Dec-07 21:30N 53°28' E 009°58'0 0.0
2017-Dec-07 21:00N 53°28' E 009°58'0 0.0
2017-Dec-07 20:30N 53°28' E 009°58'0 0.0
2017-Dec-07 20:00N 53°28' E 009°58'0 0.0
2017-Dec-07 19:30N 53°28' E 009°58'0 0.0
2017-Dec-07 19:00N 53°28' E 009°58'0 0.0
2017-Dec-07 18:30N 53°28' E 009°58'0 0.0
2017-Dec-07 18:00N 53°28' E 009°58'0 0.0
2017-Dec-07 17:30N 53°28' E 009°58'0 0.0
2017-Dec-07 17:00N 53°28' E 009°58'0 0.0
2017-Dec-07 16:30N 53°28' E 009°58'0 0.0
2017-Dec-07 16:00N 53°28' E 009°58'0 0.0
2017-Dec-07 15:30N 53°28' E 009°58'0 0.0
2017-Dec-07 15:00N 53°28' E 009°58'0 0.0
2017-Dec-07 14:27N 53°28' E 009°58'0 0.0
2017-Dec-07 14:00N 53°28' E 009°58'0 0.0
2017-Dec-07 13:30N 53°28' E 009°58'0 0.0
2017-Dec-07 13:00N 53°28' E 009°58'0 0.0
2017-Dec-07 12:30N 53°28' E 009°58'0 0.0
2017-Dec-07 12:01N 53°28' E 009°58'0 0.0
2017-Dec-07 11:31N 53°28' E 009°58'0 0.0
2017-Dec-07 11:00N 53°28' E 009°58'0 0.0
2017-Dec-07 10:30N 53°28' E 009°58'0 0.0
2017-Dec-07 10:00N 53°28' E 009°58'0 0.1
2017-Dec-07 09:30N 53°28' E 009°58'2 3.7
2017-Dec-07 09:00N 53°30' E 009°57'2 3.6
2017-Dec-07 08:31N 53°32' E 009°56'3 6.7
2017-Dec-07 08:00N 53°33' E 009°51'4 7.9
2017-Dec-07 07:30N 53°34' E 009°44'4 8.1
2017-Dec-07 07:00N 53°35' E 009°38'4 8.4
2017-Dec-07 06:31N 53°37' E 009°33'4 7.5
2017-Dec-07 06:00N 53°41' E 009°30'4 8.0
2017-Dec-07 05:30N 53°44' E 009°26'4 8.7
2017-Dec-07 05:01N 53°48' E 009°23'5 9.3
2017-Dec-07 04:30N 53°52' E 009°18'5 9.8
2017-Dec-07 04:00N 53°53' E 009°10'4 8.0
2017-Dec-07 03:30N 53°52' E 009°03'4 8.2
2017-Dec-07 03:00N 53°51' E 008°56'5 9.8
2017-Dec-07 02:30N 53°50' E 008°48'5 9.1
2017-Dec-07 02:00N 53°53' E 008°42'4 8.3
2017-Dec-07 01:31N 53°57' E 008°38'5 9.4
2017-Dec-07 01:00N 53°58' E 008°31'510.9
2017-Dec-07 00:30N 53°59' E 008°21'611.2
2017-Dec-06 23:59N 53°59' E 008°12'  
Track history (hours):
 
Tides and Currents Weather Stations Pressure Air Temp Water Temp Dewpoint Dewpoint Depression Visibility Wind Speed Wind Dir Waves Ship Positions

Blue Bay

Last reported at 2017-Dec-16 11:25 UTC. Time now 2017-Dec-16 15:04 UTC.
Position N 51°30' E 001°05'.

Length 90 m; draft 5.4 m.

Type: Cargo ship. MMSI: 304519000.

Date/timePositionNaut miles runAvg speedWind from/ knotsBaromVisibWave heightAir tempDewpointWater temp
2017-Dec-16 11:25N 51°30' E 001°05'410.2
2017-Dec-16 10:59N 51°29' E 001°12'510.3
2017-Dec-16 10:31N 51°29' E 001°20'510.6
2017-Dec-16 10:01N 51°30' E 001°28'510.3
2017-Dec-16 09:30N 51°31' E 001°36'510.2
2017-Dec-16 09:00N 51°32' E 001°44'510.2
2017-Dec-16 08:31N 51°34' E 001°52'510.3
2017-Dec-16 08:01N 51°36' E 001°59'510.5
2017-Dec-16 07:30N 51°39' E 002°07'1111.0
2017-Dec-16 06:28N 51°45' E 002°22'31 9.6
2017-Dec-16 03:12N 52°09' E 002°54'2 8.5
2017-Dec-16 03:00N 52°11' E 002°56'4 8.4
2017-Dec-16 02:29N 52°14' E 003°00'4 8.2
2017-Dec-16 02:00N 52°17' E 003°04'4 8.2
2017-Dec-16 01:29N 52°21' E 003°09'35 8.8
2017-Dec-15 21:32N 52°47' E 003°45'54 9.5
2017-Dec-15 15:50N 53°29' E 004°43'3 8.0
2017-Dec-15 15:31N 53°30' E 004°47'4 7.9
2017-Dec-15 15:00N 53°32' E 004°53'4 8.1
2017-Dec-15 14:30N 53°33' E 004°60'4 8.4
2017-Dec-15 14:00N 53°34' E 005°06'101 8.8
2017-Dec-15 02:30N 54°01' E 007°51'14 9.4
2017-Dec-15 01:00N 54°01' E 008°15'510.8
2017-Dec-15 00:30N 53°60' E 008°24'48 8.1
2017-Dec-14 18:31N 53°36' E 009°35'611.3
2017-Dec-14 18:01N 53°34' E 009°44'611.3
2017-Dec-14 17:31N 53°33' E 009°54'4 7.6
2017-Dec-14 17:01N 53°29' E 009°57'1 2.3
2017-Dec-14 16:31N 53°28' E 009°58'0 0.0
2017-Dec-14 15:59N 53°28' E 009°58'0 0.0
2017-Dec-14 15:00N 53°28' E 009°58'0 0.0
2017-Dec-14 14:31N 53°28' E 009°58'0 0.0
2017-Dec-14 14:00N 53°28' E 009°58'0 0.0
2017-Dec-14 13:30N 53°28' E 009°58'0 0.0
2017-Dec-14 13:00N 53°28' E 009°58'0 0.0
2017-Dec-14 12:30N 53°28' E 009°58'0 0.0
2017-Dec-14 12:00N 53°28' E 009°58'0 0.0
2017-Dec-14 11:30N 53°28' E 009°58'0 0.0
2017-Dec-14 11:00N 53°28' E 009°58'0 0.0
2017-Dec-14 10:31N 53°28' E 009°58'0 0.0
2017-Dec-14 10:00N 53°28' E 009°58'0 0.0
2017-Dec-14 09:30N 53°28' E 009°58'0 0.0
2017-Dec-14 09:01N 53°28' E 009°58'0 0.0
2017-Dec-14 08:30N 53°28' E 009°58'0 0.0
2017-Dec-14 08:00N 53°28' E 009°58'0 0.0
2017-Dec-14 07:30N 53°28' E 009°58'0 0.0
2017-Dec-14 07:00N 53°28' E 009°58'0 0.0
2017-Dec-14 06:30N 53°28' E 009°58'0 0.0
2017-Dec-14 06:00N 53°28' E 009°58'0 0.0
2017-Dec-14 05:30N 53°28' E 009°58'0 0.0
2017-Dec-14 05:01N 53°28' E 009°58'0 0.0
2017-Dec-14 04:30N 53°28' E 009°58'0 0.0
2017-Dec-14 04:00N 53°28' E 009°58'0 0.0
2017-Dec-14 03:30N 53°28' E 009°58'0 0.0
2017-Dec-14 03:00N 53°28' E 009°58'0 0.0
2017-Dec-14 02:31N 53°28' E 009°58'0 0.0
2017-Dec-14 02:00N 53°28' E 009°58'0 0.0
2017-Dec-14 01:31N 53°28' E 009°58'0 0.0
2017-Dec-14 01:00N 53°28' E 009°58'0 0.0
2017-Dec-14 00:30N 53°28' E 009°58'0 0.0
2017-Dec-14 00:00N 53°28' E 009°58'0 0.0
2017-Dec-13 23:31N 53°28' E 009°58'0 0.0
2017-Dec-13 23:00N 53°28' E 009°58'0 0.0
2017-Dec-13 22:30N 53°28' E 009°58'0 0.0
2017-Dec-13 22:00N 53°28' E 009°58'0 0.0
2017-Dec-13 21:30N 53°28' E 009°58'2 3.2
2017-Dec-13 21:00N 53°30' E 009°57'2 3.5
2017-Dec-13 20:30N 53°32' E 009°56'3 6.6
2017-Dec-13 20:00N 53°33' E 009°51'611.7
2017-Dec-13 19:31N 53°34' E 009°42'612.5
2017-Dec-13 19:01N 53°37' E 009°33'612.4
2017-Dec-13 18:30N 53°43' E 009°28'611.7
2017-Dec-13 18:01N 53°48' E 009°23'611.3
2017-Dec-13 17:31N 53°52' E 009°16'511.0
2017-Dec-13 17:00N 53°53' E 009°07'510.3
2017-Dec-13 16:30N 53°51' E 008°59'5 9.6
2017-Dec-13 16:00N 53°50' E 008°51'4 8.2
2017-Dec-13 15:30N 53°52' E 008°44'4 7.2
2017-Dec-13 15:01N 53°55' E 008°41'4 7.5
2017-Dec-13 14:30N 53°57' E 008°37'4 9.0
2017-Dec-13 14:00N 53°58' E 008°29'4 8.7
2017-Dec-13 13:30N 53°59' E 008°22'510.8
2017-Dec-13 13:00N 53°60' E 008°13'510.8
2017-Dec-13 12:30N 53°59' E 008°04'510.3
2017-Dec-13 12:00N 53°58' E 007°55'510.2
2017-Dec-13 11:29N 53°56' E 007°47'8310.9
2017-Dec-13 03:48N 53°34' E 005°30'412.5
2017-Dec-13 03:31N 53°33' E 005°25'612.5
2017-Dec-13 03:00N 53°31' E 005°15'612.5
2017-Dec-13 02:31N 53°29' E 005°05'612.4
2017-Dec-13 02:00N 53°27' E 004°55'612.2
2017-Dec-13 01:30N 53°25' E 004°45'1612.5
2017-Dec-13 00:11N 53°11' E 004°30'212.6
2017-Dec-13 00:00N 53°09' E 004°28'712.7
2017-Dec-12 23:29N 53°03' E 004°23'612.5
2017-Dec-12 23:00N 52°58' E 004°19'612.4
2017-Dec-12 22:30N 52°52' E 004°14'612.3
2017-Dec-12 22:00N 52°48' E 004°08'612.2
2017-Dec-12 21:30N 52°43' E 004°02'611.9
2017-Dec-12 21:00N 52°39' E 003°55'611.6
2017-Dec-12 20:30N 52°34' E 003°48'611.3
2017-Dec-12 19:59N 52°30' E 003°42'511.0
2017-Dec-12 19:30N 52°26' E 003°36'610.7
2017-Dec-12 18:59N 52°23' E 003°29'510.3
2017-Dec-12 18:29N 52°19' E 003°23'510.1
2017-Dec-12 18:00N 52°15' E 003°17'5 9.9
2017-Dec-12 17:30N 52°12' E 003°12'5 9.7
2017-Dec-12 16:59N 52°08' E 003°06'5 9.6
2017-Dec-12 16:30N 52°06' E 002°60'510.1
2017-Dec-12 15:59N 52°05' E 002°51'2710.1
2017-Dec-12 13:20N 51°48' E 002°18'411.1
2017-Dec-12 13:00N 51°45' E 002°14'611.2
2017-Dec-12 12:30N 51°42' E 002°06'611.3
2017-Dec-12 12:00N 51°39' E 001°59'611.6
2017-Dec-12 11:30N 51°36' E 001°51'611.7
2017-Dec-12 11:00N 51°32' E 001°44'611.9
2017-Dec-12 10:30N 51°30' E 001°35'612.3
2017-Dec-12 10:00N 51°29' E 001°25'612.3
2017-Dec-12 09:30N 51°29' E 001°15'612.9
2017-Dec-12 09:00N 51°29' E 001°05'612.3
2017-Dec-12 08:30N 51°29' E 000°55'611.2
2017-Dec-12 08:00N 51°28' E 000°46'4 7.5
2017-Dec-12 07:30N 51°24' E 000°44'2 3.6
2017-Dec-12 07:00N 51°23' E 000°46'0 0.0
2017-Dec-12 06:30N 51°23' E 000°46'0 0.0
2017-Dec-12 06:00N 51°23' E 000°46'0 0.0
2017-Dec-12 05:30N 51°23' E 000°46'0 0.0
2017-Dec-12 05:00N 51°23' E 000°46'0 0.0
2017-Dec-12 04:30N 51°23' E 000°46'0 0.0
2017-Dec-12 04:00N 51°23' E 000°46'0 0.0
2017-Dec-12 03:30N 51°23' E 000°46'0 0.0
2017-Dec-12 03:00N 51°23' E 000°46'0 0.0
2017-Dec-12 02:30N 51°23' E 000°46'0 0.0
2017-Dec-12 02:00N 51°23' E 000°46'0 0.0
2017-Dec-12 01:30N 51°23' E 000°46'0 0.0
2017-Dec-12 01:01N 51°23' E 000°46'0 0.0
2017-Dec-12 00:30N 51°23' E 000°46'0 0.0
2017-Dec-12 00:00N 51°23' E 000°46'0 0.0
2017-Dec-11 23:30N 51°23' E 000°46'0 0.0
2017-Dec-11 23:00N 51°23' E 000°46'0 0.0
2017-Dec-11 22:30N 51°23' E 000°46'0 0.0
2017-Dec-11 22:00N 51°23' E 000°46'0 0.0
2017-Dec-11 21:30N 51°23' E 000°46'0 0.0
2017-Dec-11 21:00N 51°23' E 000°46'0 0.0
2017-Dec-11 20:31N 51°23' E 000°46'0 0.0
2017-Dec-11 20:00N 51°23' E 000°46'0 0.0
2017-Dec-11 19:30N 51°23' E 000°46'0 0.0
2017-Dec-11 19:01N 51°23' E 000°46'0 0.0
2017-Dec-11 18:30N 51°23' E 000°46'0 0.0
2017-Dec-11 18:00N 51°23' E 000°46'0 0.0
2017-Dec-11 17:30N 51°23' E 000°46'0 0.0
2017-Dec-11 17:00N 51°23' E 000°46'0 0.0
2017-Dec-11 16:30N 51°23' E 000°46'0 0.0
2017-Dec-11 16:00N 51°23' E 000°46'0 0.0
2017-Dec-11 15:30N 51°23' E 000°46'0 0.0
2017-Dec-11 15:00N 51°23' E 000°46'0 0.0
2017-Dec-11 14:30N 51°23' E 000°46'0 0.0
2017-Dec-11 14:00N 51°23' E 000°46'0 0.0
2017-Dec-11 13:30N 51°23' E 000°46'0 0.0
2017-Dec-11 13:00N 51°23' E 000°46'0 0.0
2017-Dec-11 12:30N 51°23' E 000°46'0 0.0
2017-Dec-11 12:00N 51°23' E 000°46'0 0.0
2017-Dec-11 11:30N 51°23' E 000°46'0 0.0
2017-Dec-11 11:00N 51°23' E 000°46'0 0.0
2017-Dec-11 10:30N 51°23' E 000°46'0 0.0
2017-Dec-11 10:00N 51°23' E 000°46'0 0.0
2017-Dec-11 09:16N 51°23' E 000°46'0 0.0
2017-Dec-11 09:00N 51°23' E 000°46'0 0.0
2017-Dec-11 08:30N 51°23' E 000°46'0 0.0
2017-Dec-11 08:01N 51°23' E 000°46'0 0.0
2017-Dec-11 07:30N 51°23' E 000°46'0 0.0
2017-Dec-11 07:00N 51°23' E 000°46'0 0.0
2017-Dec-11 06:30N 51°23' E 000°46'0 0.4
2017-Dec-11 06:00N 51°23' E 000°45'2 4.3
2017-Dec-11 05:31N 51°25' E 000°43'4 7.0
2017-Dec-11 05:00N 51°28' E 000°47'611.3
2017-Dec-11 04:30N 51°30' E 000°55'2 3.6
2017-Dec-11 04:00N 51°30' E 000°58'0 0.2
2017-Dec-11 03:30N 51°30' E 000°58'0 0.0
2017-Dec-11 03:00N 51°30' E 000°58'0 0.0
2017-Dec-11 02:31N 51°30' E 000°58'0 0.1
2017-Dec-11 02:00N 51°30' E 000°58'0 0.0
2017-Dec-11 01:30N 51°30' E 000°58'0 0.0
2017-Dec-11 01:00N 51°30' E 000°58'0 0.2
2017-Dec-11 00:30N 51°30' E 000°58'0 0.1
2017-Dec-11 00:00N 51°30' E 000°58'0 0.0
2017-Dec-10 23:30N 51°30' E 000°58'0 0.0
2017-Dec-10 23:00N 51°30' E 000°58'2 3.0
2017-Dec-10 22:30N 51°29' E 000°57'5 8.8
2017-Dec-10 21:58N 51°30' E 001°04'5 8.8
2017-Dec-10 21:25N 51°29' E 001°12'3 8.4
2017-Dec-10 21:00N 51°29' E 001°18'4 8.1
2017-Dec-10 20:31N 51°29' E 001°24'4 8.6
2017-Dec-10 20:00N 51°30' E 001°31'4 8.5
2017-Dec-10 19:30N 51°32' E 001°37'4 8.5
2017-Dec-10 19:00N 51°35' E 001°41'4 8.2
2017-Dec-10 18:31N 51°39' E 001°45'4 8.7
2017-Dec-10 18:00N 51°43' E 001°45'5 9.1
2017-Dec-10 17:30N 51°47' E 001°44'5 9.5
2017-Dec-10 17:01N 51°52' E 001°45'5 9.5
2017-Dec-10 16:30N 51°57' E 001°45'5 9.8
2017-Dec-10 16:00N 52°02' E 001°45'5 9.8
2017-Dec-10 15:30N 52°07' E 001°45'3 6.3
2017-Dec-10 15:00N 52°10' E 001°45'2 4.6
2017-Dec-10 14:30N 52°09' E 001°48'2 4.6
2017-Dec-10 14:01N 52°07' E 001°51'1 2.4
2017-Dec-10 13:30N 52°07' E 001°53'2 4.2
2017-Dec-10 13:00N 52°09' E 001°52'2 3.9
2017-Dec-10 12:30N 52°11' E 001°51'10 3.9
2017-Dec-10 09:59N 52°11' E 002°07'78 8.5
2017-Dec-10 00:43N 52°54' E 003°55'2 9.0
2017-Dec-10 00:29N 52°55' E 003°58'5 8.7
2017-Dec-09 23:53N 52°59' E 004°04'38 7.2
2017-Dec-09 18:39N 53°29' E 004°41'1 8.2
2017-Dec-09 18:30N 53°30' E 004°43'4 8.5
2017-Dec-09 18:00N 53°31' E 004°49'4 8.5
2017-Dec-09 17:31N 53°33' E 004°56'4 8.8
2017-Dec-09 17:01N 53°34' E 005°03'4 8.6
2017-Dec-09 16:30N 53°35' E 005°10'94 7.5
2017-Dec-09 04:02N 54°02' E 007°43'0 7.4
2017-Dec-09 03:58N 54°02' E 007°44'4 7.5
2017-Dec-09 03:30N 54°02' E 007°50'4 7.1
2017-Dec-09 03:00N 54°02' E 007°56'3 6.7
2017-Dec-09 02:30N 54°02' E 008°01'3 6.4
2017-Dec-09 02:00N 54°01' E 008°07'3 6.1
2017-Dec-09 01:30N 54°01' E 008°12'3 5.7
2017-Dec-09 01:00N 54°01' E 008°17'3 5.4
2017-Dec-09 00:30N 54°00' E 008°21'3 5.9
2017-Dec-09 00:00N 53°59' E 008°26'3 6.6
2017-Dec-08 23:30N 53°58' E 008°31'4 8.4
2017-Dec-08 23:00N 53°57' E 008°38'611.0
2017-Dec-08 22:30N 53°53' E 008°43'611.2
2017-Dec-08 22:00N 53°50' E 008°52'611.7
2017-Dec-08 21:30N 53°52' E 009°02'510.5
2017-Dec-08 21:00N 53°53' E 009°11'611.7
2017-Dec-08 20:30N 53°51' E 009°20'612.6
2017-Dec-08 20:01N 53°45' E 009°25'611.4
2017-Dec-08 19:30N 53°41' E 009°30'510.5
2017-Dec-08 19:00N 53°36' E 009°35'5 9.4
2017-Dec-08 18:31N 53°34' E 009°42'4 8.1
2017-Dec-08 18:00N 53°33' E 009°49'4 7.3
2017-Dec-08 17:31N 53°33' E 009°55'3 6.9
2017-Dec-08 17:00N 53°29' E 009°57'1 2.1
2017-Dec-08 16:30N 53°28' E 009°58'0 0.0
2017-Dec-08 16:00N 53°28' E 009°58'0 0.0
2017-Dec-08 15:30N 53°28' E 009°58'0 0.0
2017-Dec-08 15:00N 53°28' E 009°58'0 0.0
2017-Dec-08 14:30N 53°28' E 009°58'0 0.0
2017-Dec-08 14:00N 53°28' E 009°58'0 0.0
2017-Dec-08 13:30N 53°28' E 009°58'0 0.0
2017-Dec-08 13:00N 53°28' E 009°58'0 0.0
2017-Dec-08 12:30N 53°28' E 009°58'0 0.0
2017-Dec-08 12:00N 53°28' E 009°58'0 0.0
2017-Dec-08 11:30N 53°28' E 009°58'0 0.0
2017-Dec-08 11:00N 53°28' E 009°58'0 0.0
2017-Dec-08 10:30N 53°28' E 009°58'0 0.0
2017-Dec-08 10:00N 53°28' E 009°58'0 0.0
2017-Dec-08 09:30N 53°28' E 009°58'0 0.0
2017-Dec-08 09:00N 53°28' E 009°58'0 0.0
2017-Dec-08 08:30N 53°28' E 009°58'0 0.0
2017-Dec-08 08:00N 53°28' E 009°58'0 0.0
2017-Dec-08 07:30N 53°28' E 009°58'0 0.0
2017-Dec-08 07:00N 53°28' E 009°58'0 0.0
2017-Dec-08 06:30N 53°28' E 009°58'0 0.0
2017-Dec-08 06:00N 53°28' E 009°58'0 0.0
2017-Dec-08 05:30N 53°28' E 009°58'0 0.0
2017-Dec-08 04:57N 53°28' E 009°58'0 0.0
2017-Dec-08 04:30N 53°28' E 009°58'0 0.0
2017-Dec-08 04:00N 53°28' E 009°58'0 0.0
2017-Dec-08 03:30N 53°28' E 009°58'0 0.0
2017-Dec-08 03:00N 53°28' E 009°58'0 0.0
2017-Dec-08 02:30N 53°28' E 009°58'0 0.0
2017-Dec-08 02:00N 53°28' E 009°58'0 0.0
2017-Dec-08 01:30N 53°28' E 009°58'0 0.0
2017-Dec-08 01:00N 53°28' E 009°58'0 0.0
2017-Dec-08 00:30N 53°28' E 009°58'0 0.0
2017-Dec-08 00:00N 53°28' E 009°58'0 0.0
2017-Dec-07 23:30N 53°28' E 009°58'0 0.0
2017-Dec-07 23:00N 53°28' E 009°58'0 0.0
2017-Dec-07 22:30N 53°28' E 009°58'0 0.0
2017-Dec-07 22:00N 53°28' E 009°58'0 0.0
2017-Dec-07 21:30N 53°28' E 009°58'0 0.0
2017-Dec-07 21:00N 53°28' E 009°58'0 0.0
2017-Dec-07 20:30N 53°28' E 009°58'0 0.0
2017-Dec-07 20:00N 53°28' E 009°58'0 0.0
2017-Dec-07 19:30N 53°28' E 009°58'0 0.0
2017-Dec-07 19:00N 53°28' E 009°58'0 0.0
2017-Dec-07 18:30N 53°28' E 009°58'0 0.0
2017-Dec-07 18:00N 53°28' E 009°58'0 0.0
2017-Dec-07 17:30N 53°28' E 009°58'0 0.0
2017-Dec-07 17:00N 53°28' E 009°58'0 0.0
2017-Dec-07 16:30N 53°28' E 009°58'0 0.0
2017-Dec-07 16:00N 53°28' E 009°58'0 0.0
2017-Dec-07 15:30N 53°28' E 009°58'0 0.0
2017-Dec-07 15:00N 53°28' E 009°58'0 0.0
2017-Dec-07 14:27N 53°28' E 009°58'0 0.0
2017-Dec-07 14:00N 53°28' E 009°58'0 0.0
2017-Dec-07 13:30N 53°28' E 009°58'0 0.0
2017-Dec-07 13:00N 53°28' E 009°58'0 0.0
2017-Dec-07 12:30N 53°28' E 009°58'0 0.0
2017-Dec-07 12:01N 53°28' E 009°58'0 0.0
2017-Dec-07 11:31N 53°28' E 009°58'0 0.0
2017-Dec-07 11:00N 53°28' E 009°58'0 0.0
2017-Dec-07 10:30N 53°28' E 009°58'0 0.0
2017-Dec-07 10:00N 53°28' E 009°58'0 0.1
2017-Dec-07 09:30N 53°28' E 009°58'2 3.7
2017-Dec-07 09:00N 53°30' E 009°57'2 3.6
2017-Dec-07 08:31N 53°32' E 009°56'3 6.7
2017-Dec-07 08:00N 53°33' E 009°51'4 7.9
2017-Dec-07 07:30N 53°34' E 009°44'4 8.1
2017-Dec-07 07:00N 53°35' E 009°38'4 8.4
2017-Dec-07 06:31N 53°37' E 009°33'4 7.5
2017-Dec-07 06:00N 53°41' E 009°30'4 8.0
2017-Dec-07 05:30N 53°44' E 009°26'4 8.7
2017-Dec-07 05:01N 53°48' E 009°23'5 9.3
2017-Dec-07 04:30N 53°52' E 009°18'5 9.8
2017-Dec-07 04:00N 53°53' E 009°10'4 8.0
2017-Dec-07 03:30N 53°52' E 009°03'4 8.2
2017-Dec-07 03:00N 53°51' E 008°56'5 9.8
2017-Dec-07 02:30N 53°50' E 008°48'5 9.1
2017-Dec-07 02:00N 53°53' E 008°42'4 8.3
2017-Dec-07 01:31N 53°57' E 008°38'5 9.4
2017-Dec-07 01:00N 53°58' E 008°31'510.9
2017-Dec-07 00:30N 53°59' E 008°21'611.2
2017-Dec-06 23:59N 53°59' E 008°12'  

Dump ship's entire track history